createdAt,value
2019-01-03T00:02:38.295Z,52.40
2019-01-03T00:05:25.845Z,52.70
2019-01-03T00:08:13.388Z,52.90
2019-01-03T00:10:59.090Z,52.80
2019-01-03T00:13:32.794Z,52.70
2019-01-03T00:16:10.224Z,52.90
2019-01-03T00:18:57.961Z,52.90
2019-01-03T00:21:35.753Z,52.90
2019-01-03T00:24:06.914Z,52.80
2019-01-03T00:26:38.126Z,52.70
2019-01-03T00:29:09.271Z,52.80
2019-01-03T00:31:56.556Z,52.90
2019-01-03T00:34:36.490Z,52.80
2019-01-03T00:37:23.873Z,52.40
2019-01-03T00:39:55.371Z,51.90
2019-01-03T00:42:26.518Z,53.30
2019-01-03T00:45:00.349Z,53.80
2019-01-03T00:47:33.994Z,53.50
2019-01-03T00:50:05.196Z,53.50
2019-01-03T00:52:36.881Z,53.20
2019-01-03T00:55:17.032Z,53.20
2019-01-03T00:57:48.130Z,53.80
2019-01-03T01:00:25.027Z,53.40
2019-01-03T01:03:12.299Z,53.50
2019-01-03T01:05:46.084Z,53.90
2019-01-03T01:08:34.475Z,54.20
2019-01-03T01:11:22.089Z,53.80
2019-01-03T01:13:56.224Z,53.70
2019-01-03T01:16:30.437Z,53.40
2019-01-03T01:19:01.626Z,54.10
2019-01-03T01:21:42.099Z,54.50
2019-01-03T01:24:30.190Z,54.40
2019-01-03T01:27:17.545Z,54.20
2019-01-03T01:29:54.648Z,53.90
2019-01-03T01:32:28.734Z,54.00
2019-01-03T01:35:03.235Z,54.30
2019-01-03T01:37:37.094Z,54.00
2019-01-03T01:40:12.401Z,54.10
2019-01-03T01:42:46.470Z,54.90
2019-01-03T01:45:23.638Z,54.40
2019-01-03T01:47:55.158Z,54.40
2019-01-03T01:50:26.409Z,54.70
2019-01-03T01:52:57.581Z,54.60
2019-01-03T01:55:28.745Z,54.30
2019-01-03T01:58:03.185Z,54.60
2019-01-03T02:00:43.243Z,54.40
2019-01-03T02:03:14.409Z,54.20
2019-01-03T02:05:51.773Z,54.20
2019-01-03T02:08:28.893Z,53.70
2019-01-03T02:11:05.873Z,54.50
2019-01-03T02:13:53.469Z,54.20
2019-01-03T02:16:40.620Z,54.60
2019-01-03T02:19:17.753Z,54.20
2019-01-03T02:21:57.812Z,54.70
2019-01-03T02:24:45.902Z,55.00
2019-01-03T02:27:22.716Z,55.20
2019-01-03T02:30:09.106Z,55.00
2019-01-03T02:32:40.446Z,55.00
2019-01-03T02:35:30.179Z,54.80
2019-01-03T02:38:19.753Z,55.20
2019-01-03T02:41:07.208Z,54.40
2019-01-03T02:43:54.422Z,55.10
2019-01-03T02:46:42.339Z,54.90
2019-01-03T02:49:19.424Z,54.60
2019-01-03T02:52:08.489Z,54.30
2019-01-03T02:54:39.631Z,54.10
2019-01-03T02:57:14.113Z,54.40
2019-01-03T03:00:01.639Z,54.60
2019-01-03T03:02:33.110Z,54.90
2019-01-03T03:05:04.256Z,55.00
2019-01-03T03:07:35.377Z,55.10
2019-01-03T03:10:10.457Z,54.70
2019-01-03T03:12:44.723Z,55.00
2019-01-03T03:15:18.622Z,55.50
2019-01-03T03:17:49.757Z,54.60
2019-01-03T03:20:37.218Z,54.80
2019-01-03T03:23:24.809Z,54.50
2019-01-03T03:26:13.161Z,54.40
2019-01-03T03:29:02.261Z,54.30
2019-01-03T03:31:33.444Z,54.20
2019-01-03T03:34:13.536Z,54.20
2019-01-03T03:36:50.668Z,54.90
2019-01-03T03:39:33.645Z,56.10
2019-01-03T03:42:13.965Z,54.90
2019-01-03T03:44:51.253Z,54.60
2019-01-03T03:47:47.754Z,54.80
2019-01-03T03:50:31.063Z,54.60
2019-01-03T03:53:17.484Z,54.90
2019-01-03T03:56:00.573Z,54.70
2019-01-03T03:58:49.803Z,55.10
2019-01-03T04:01:37.137Z,54.80
2019-01-03T04:04:26.480Z,56.10
2019-01-03T04:07:13.839Z,55.60
2019-01-03T04:09:57.350Z,54.90
2019-01-03T04:12:31.481Z,54.80
2019-01-03T04:15:17.538Z,54.70
2019-01-03T04:18:05.233Z,54.80
2019-01-03T04:20:51.387Z,55.40
2019-01-03T04:23:28.377Z,55.00
2019-01-03T04:26:15.875Z,55.40
2019-01-03T04:29:03.413Z,55.20
2019-01-03T04:31:53.930Z,56.00
2019-01-03T04:34:30.986Z,56.40
2019-01-03T04:37:02.157Z,56.10
2019-01-03T04:39:33.650Z,55.90
2019-01-03T04:42:13.666Z,55.80
2019-01-03T04:45:00.353Z,55.80
2019-01-03T04:47:43.642Z,55.50
2019-01-03T04:50:20.925Z,55.80
2019-01-03T04:52:57.771Z,56.10
2019-01-03T04:55:28.913Z,56.60
2019-01-03T04:58:00.403Z,56.20
2019-01-03T05:00:49.753Z,55.50
2019-01-03T05:03:38.845Z,56.30
2019-01-03T05:06:26.133Z,56.20
2019-01-03T05:09:02.963Z,56.10
2019-01-03T05:11:46.437Z,56.10
2019-01-03T05:14:23.531Z,56.50
2019-01-03T05:17:11.359Z,55.80
2019-01-03T05:19:42.604Z,56.30
2019-01-03T05:22:29.706Z,56.20
2019-01-03T05:25:12.658Z,55.60
2019-01-03T05:27:49.579Z,55.80
2019-01-03T05:30:32.913Z,55.60
2019-01-03T05:33:07.001Z,55.70
2019-01-03T05:35:38.074Z,56.00
2019-01-03T05:38:25.201Z,56.30
2019-01-03T05:41:05.517Z,57.00
2019-01-03T05:43:46.150Z,56.70
2019-01-03T05:46:33.100Z,57.30
2019-01-03T05:49:10.431Z,56.70
2019-01-03T05:51:41.569Z,56.00
2019-01-03T05:54:12.721Z,55.80
2019-01-03T05:57:00.406Z,55.80
2019-01-03T05:59:43.492Z,55.80
2019-01-03T06:02:32.718Z,55.70
2019-01-03T06:05:15.693Z,55.70
2019-01-03T06:07:52.629Z,56.30
2019-01-03T06:10:26.227Z,56.00
2019-01-03T06:13:00.095Z,55.90
2019-01-03T06:15:31.567Z,55.90
2019-01-03T06:18:18.913Z,56.30
2019-01-03T06:20:55.762Z,56.20
2019-01-03T06:23:27.498Z,56.30
2019-01-03T06:26:13.545Z,56.40
2019-01-03T06:28:47.238Z,57.20
2019-01-03T06:31:35.462Z,57.70
2019-01-03T06:34:22.685Z,57.60
2019-01-03T06:37:00.157Z,57.10
2019-01-03T06:39:48.055Z,56.80
2019-01-03T06:42:37.418Z,56.50
2019-01-03T06:45:11.657Z,56.20
2019-01-03T06:47:43.231Z,56.10
2019-01-03T06:50:23.390Z,56.20
2019-01-03T06:53:00.552Z,56.20
2019-01-03T06:55:48.629Z,56.00
2019-01-03T06:58:19.765Z,56.40
2019-01-03T07:00:53.392Z,56.30
2019-01-03T07:06:35.994Z,56.80
2019-01-03T07:09:25.262Z,56.40
2019-01-03T07:11:59.741Z,56.50
2019-01-03T07:14:46.977Z,57.10
2019-01-03T07:17:33.097Z,57.30
2019-01-03T07:20:10.698Z,57.30
2019-01-03T07:22:47.777Z,57.30
2019-01-03T07:25:37.457Z,57.40
2019-01-03T07:28:08.810Z,57.20
2019-01-03T07:30:55.916Z,57.30
2019-01-03T07:33:27.313Z,57.30
2019-01-03T07:35:58.457Z,58.10
2019-01-03T07:38:35.844Z,57.50
2019-01-03T07:41:23.649Z,57.60
2019-01-03T07:44:00.954Z,56.80
2019-01-03T07:46:34.718Z,57.20
2019-01-03T07:49:23.116Z,56.90
2019-01-03T07:51:56.926Z,56.80
2019-01-03T07:54:44.587Z,57.20
2019-01-03T07:57:21.730Z,57.90
2019-01-03T08:00:09.303Z,57.70
2019-01-03T08:02:40.789Z,58.00
2019-01-03T08:05:14.796Z,57.90
2019-01-03T08:08:05.261Z,57.50
2019-01-03T08:10:36.885Z,58.00
2019-01-03T08:13:17.217Z,57.90
2019-01-03T08:16:03.790Z,57.40
2019-01-03T08:18:34.967Z,57.30
2019-01-03T08:21:15.153Z,58.00
2019-01-03T08:24:08.252Z,57.60
2019-01-03T08:26:55.886Z,57.90
2019-01-03T08:30:06.973Z,57.90
2019-01-03T08:32:38.500Z,58.00
2019-01-03T08:35:28.075Z,58.30
2019-01-03T08:38:14.514Z,58.60
2019-01-03T08:41:02.017Z,58.30
2019-01-03T08:43:33.461Z,58.70
2019-01-03T08:46:20.888Z,58.50
2019-01-03T08:49:04.633Z,58.50
2019-01-03T08:51:52.127Z,58.70
2019-01-03T08:54:26.134Z,58.90
2019-01-03T08:57:13.709Z,59.00
2019-01-03T08:59:54.738Z,59.50
2019-01-03T09:02:47.102Z,58.90
2019-01-03T09:05:18.778Z,59.30
2019-01-03T09:07:55.917Z,59.40
2019-01-03T09:10:27.177Z,60.80
2019-01-03T09:12:58.322Z,61.50
2019-01-03T09:15:29.640Z,60.70
2019-01-03T09:18:09.448Z,59.90
2019-01-03T09:20:36.397Z,59.40
2019-01-03T09:23:18.020Z,60.10
2019-01-03T09:25:55.107Z,58.90
2019-01-03T09:28:41.385Z,58.50
2019-01-03T09:31:28.520Z,59.20
2019-01-03T09:34:16.134Z,57.80
2019-01-03T09:37:02.875Z,57.50
2019-01-03T09:39:40.101Z,56.20
2019-01-03T09:42:14.148Z,55.20
2019-01-03T09:44:46.762Z,54.90
2019-01-03T09:47:16.273Z,55.00
2019-01-03T09:49:45.984Z,55.00
2019-01-03T09:52:15.565Z,55.40
2019-01-03T09:54:45.070Z,55.80
2019-01-03T09:57:14.666Z,56.20
2019-01-03T09:59:44.999Z,56.80
2019-01-03T10:02:14.493Z,57.20
2019-01-03T10:04:44.069Z,57.40
2019-01-03T10:07:16.923Z,57.30
2019-01-03T10:09:51.013Z,57.40
2019-01-03T10:12:21.395Z,57.40
2019-01-03T10:14:51.858Z,57.50
2019-01-03T10:17:22.810Z,57.50
2019-01-03T10:19:52.569Z,57.70
2019-01-03T10:22:22.234Z,57.90
2019-01-03T10:24:51.788Z,58.20
2019-01-03T10:27:21.680Z,58.20
2019-01-03T10:29:51.562Z,58.40
2019-01-03T10:32:21.206Z,58.50
2019-01-03T10:34:51.046Z,58.60
2019-01-03T10:37:21.376Z,58.80
2019-01-03T10:39:51.053Z,58.90
2019-01-03T10:42:20.749Z,59.00
2019-01-03T10:44:52.151Z,58.90
2019-01-03T10:47:23.761Z,59.10
2019-01-03T10:49:53.273Z,59.00
2019-01-03T10:52:23.357Z,58.80
2019-01-03T10:54:52.892Z,59.00
2019-01-03T10:57:25.341Z,59.20
2019-01-03T10:59:56.054Z,59.20
2019-01-03T11:02:25.823Z,59.40
2019-01-03T11:04:55.335Z,59.60
2019-01-03T11:07:25.282Z,59.70
2019-01-03T11:09:56.045Z,59.90
2019-01-03T11:12:25.789Z,60.00
2019-01-03T11:14:55.933Z,60.10
2019-01-03T11:17:27.777Z,60.70
2019-01-03T11:19:57.201Z,60.90
2019-01-03T11:22:26.909Z,61.10
2019-01-03T11:25:11.979Z,61.90
2019-01-03T11:27:41.901Z,62.00
2019-01-03T11:30:17.801Z,62.60
2019-01-03T11:32:47.605Z,62.90
2019-01-03T11:35:17.279Z,63.10
2019-01-03T11:37:47.253Z,63.60
2019-01-03T11:40:17.097Z,63.50
2019-01-03T11:42:47.175Z,64.20
2019-01-03T11:45:18.442Z,64.30
2019-01-03T11:47:50.181Z,64.40
2019-01-03T11:50:19.701Z,64.70
2019-01-03T11:52:54.329Z,65.00
2019-01-03T11:55:24.386Z,65.50
2019-01-03T11:57:53.889Z,66.00
2019-01-03T12:00:23.610Z,66.40
2019-01-03T12:02:53.155Z,66.90
2019-01-03T12:05:22.649Z,67.10
2019-01-03T12:07:52.393Z,67.50
2019-01-03T12:10:25.835Z,67.50
2019-01-03T12:12:55.326Z,66.70
2019-01-03T12:15:44.297Z,66.40
2019-01-03T12:18:13.734Z,66.70
2019-01-03T12:20:43.242Z,66.70
2019-01-03T12:23:18.778Z,66.40
2019-01-03T12:25:51.021Z,66.90
2019-01-03T12:28:38.242Z,67.30
2019-01-03T12:31:11.624Z,68.00
2019-01-03T12:33:42.568Z,68.20
2019-01-03T12:36:14.291Z,68.30
2019-01-03T12:38:47.409Z,68.70
2019-01-03T12:41:17.371Z,69.20
2019-01-03T12:43:47.073Z,70.20
2019-01-03T12:46:21.486Z,70.90
2019-01-03T12:49:09.676Z,71.70
2019-01-03T12:51:52.231Z,71.70
2019-01-03T12:54:32.192Z,72.80
2019-01-03T12:57:08.061Z,73.30
2019-01-03T12:59:39.005Z,74.10
2019-01-03T13:02:08.850Z,73.90
2019-01-03T13:04:38.366Z,74.60
2019-01-03T13:07:08.105Z,74.60
2019-01-03T13:09:38.744Z,75.50
2019-01-03T13:12:11.047Z,75.70
2019-01-03T13:14:40.823Z,76.30
2019-01-03T13:17:10.333Z,75.80
2019-01-03T13:19:53.426Z,76.30
2019-01-03T13:22:25.382Z,76.60
2019-01-03T13:24:54.861Z,76.80
2019-01-03T13:27:24.375Z,76.50
2019-01-03T13:29:54.142Z,77.00
2019-01-03T13:32:23.911Z,77.20
2019-01-03T13:34:57.205Z,77.20
2019-01-03T13:37:27.179Z,77.70
2019-01-03T13:39:59.761Z,77.90
2019-01-03T13:42:29.549Z,76.80
2019-01-03T13:45:55.073Z,76.70
2019-01-03T13:49:31.285Z,76.50
2019-01-03T13:52:04.908Z,75.60
2019-01-03T13:54:34.339Z,75.60
2019-01-03T13:57:04.197Z,76.40
2019-01-03T13:59:34.131Z,76.00
2019-01-03T14:02:04.725Z,76.40
2019-01-03T14:04:34.787Z,76.20
2019-01-03T14:07:05.150Z,77.00
2019-01-03T14:09:41.607Z,77.60
2019-01-03T14:12:11.642Z,77.60
2019-01-03T14:14:41.214Z,76.90
2019-01-03T14:17:13.788Z,76.80
2019-01-03T14:19:45.725Z,75.60
2019-01-03T14:22:15.154Z,75.40
2019-01-03T14:24:45.291Z,75.50
2019-01-03T14:27:15.465Z,75.30
2019-01-03T14:29:45.166Z,74.40
2019-01-03T14:32:15.162Z,75.50
2019-01-03T14:34:45.001Z,74.20
2019-01-03T14:37:14.510Z,74.40
2019-01-03T14:39:57.532Z,75.20
2019-01-03T14:42:24.131Z,74.20
2019-01-03T14:45:15.680Z,75.60
2019-01-03T14:47:45.971Z,75.60
2019-01-03T14:50:16.497Z,75.50
2019-01-03T14:53:02.690Z,77.00
2019-01-03T14:55:45.288Z,75.10
2019-01-03T14:58:15.512Z,77.90
2019-01-03T15:00:45.037Z,75.30
2019-01-03T15:03:16.122Z,77.10
2019-01-03T15:05:45.653Z,77.00
2019-01-03T15:08:15.167Z,76.20
2019-01-03T15:10:44.687Z,77.00
2019-01-03T15:13:14.329Z,75.40
2019-01-03T15:15:46.817Z,73.90
2019-01-03T15:18:16.538Z,74.60
2019-01-03T15:20:46.620Z,74.50
2019-01-03T15:23:16.083Z,75.30
2019-01-03T15:25:46.181Z,75.20
2019-01-03T15:28:16.197Z,75.90
2019-01-03T15:30:46.046Z,74.90
2019-01-03T15:33:17.286Z,74.00
2019-01-03T15:35:47.309Z,73.30
2019-01-03T15:38:16.805Z,76.70
2019-01-03T15:40:46.386Z,74.90
2019-01-03T15:43:16.461Z,74.10
2019-01-03T15:45:46.101Z,73.20
2019-01-03T15:48:16.888Z,77.80
2019-01-03T15:50:46.552Z,78.50
2019-01-03T15:53:16.097Z,76.50
2019-01-03T15:55:45.810Z,76.90
2019-01-03T15:58:16.000Z,76.30
2019-01-03T16:00:53.838Z,76.10
2019-01-03T16:03:23.386Z,75.50
2019-01-03T16:05:52.974Z,76.40
2019-01-03T16:08:22.683Z,74.70
2019-01-03T16:10:52.225Z,74.80
2019-01-03T16:13:21.806Z,75.50
2019-01-03T16:15:51.653Z,74.80
2019-01-03T16:18:28.450Z,76.20
2019-01-03T16:20:58.249Z,75.10
2019-01-03T16:23:27.852Z,75.50
2019-01-03T16:25:57.716Z,74.10
2019-01-03T16:28:27.523Z,73.90
2019-01-03T16:30:58.100Z,74.80
2019-01-03T16:33:27.729Z,75.10
2019-01-03T16:35:58.400Z,74.60
2019-01-03T16:38:27.831Z,74.50
2019-01-03T16:40:57.444Z,74.00
2019-01-03T16:43:26.957Z,75.00
2019-01-03T16:45:56.985Z,75.10
2019-01-03T16:48:26.716Z,74.60
2019-01-03T16:50:56.146Z,74.40
2019-01-03T16:53:27.033Z,75.50
2019-01-03T16:55:56.919Z,76.30
2019-01-03T16:58:26.501Z,76.90
2019-01-03T17:00:56.957Z,75.60
2019-01-03T17:03:26.605Z,76.10
2019-01-03T17:05:56.163Z,76.10
2019-01-03T17:08:26.092Z,76.10
2019-01-03T17:10:59.618Z,76.70
2019-01-03T17:13:29.376Z,75.60
2019-01-03T17:15:58.913Z,74.60
2019-01-03T17:18:28.567Z,74.00
2019-01-03T17:20:58.142Z,74.80
2019-01-03T17:23:29.895Z,73.70
2019-01-03T17:26:02.090Z,74.00
2019-01-03T17:28:32.769Z,73.50
2019-01-03T17:31:02.443Z,73.80
2019-01-03T17:33:32.005Z,74.50
2019-01-03T17:36:01.618Z,73.70
2019-01-03T17:38:37.094Z,75.40
2019-01-03T17:41:10.290Z,77.40
2019-01-03T17:43:39.962Z,75.40
2019-01-03T17:46:15.205Z,75.50
2019-01-03T17:48:45.480Z,74.90
2019-01-03T17:51:14.910Z,74.20
2019-01-03T17:53:44.553Z,74.00
2019-01-03T17:56:14.219Z,75.60
2019-01-03T17:58:44.665Z,76.50
2019-01-03T18:01:14.689Z,75.50
2019-01-03T18:03:44.201Z,74.70
2019-01-03T18:06:13.890Z,74.40
2019-01-03T18:08:43.542Z,75.10
2019-01-03T18:11:13.079Z,74.10
2019-01-03T18:13:44.761Z,74.50
2019-01-03T18:16:14.781Z,74.00
2019-01-03T18:18:44.290Z,74.20
2019-01-03T18:21:14.939Z,74.60
2019-01-03T18:23:44.599Z,75.30
2019-01-03T18:26:14.196Z,75.10
2019-01-03T18:28:45.164Z,74.80
2019-01-03T18:31:16.168Z,75.40
2019-01-03T18:33:46.286Z,76.10
2019-01-03T18:36:17.171Z,76.30
2019-01-03T18:38:46.785Z,80.50
2019-01-03T18:41:18.443Z,81.50
2019-01-03T18:43:48.456Z,80.00
2019-01-03T18:46:18.918Z,80.60
2019-01-03T18:48:48.490Z,78.30
2019-01-03T18:51:19.634Z,77.50
2019-01-03T18:53:49.527Z,78.70
2019-01-03T18:56:19.290Z,76.40
2019-01-03T18:58:49.074Z,76.00
2019-01-03T19:01:24.849Z,76.50
2019-01-03T19:03:55.386Z,75.90
2019-01-03T19:06:24.970Z,75.70
2019-01-03T19:08:54.926Z,76.00
2019-01-03T19:11:24.622Z,75.40
2019-01-03T19:13:57.529Z,75.80
2019-01-03T19:16:27.161Z,76.40
2019-01-03T19:18:58.549Z,77.10
2019-01-03T19:21:28.525Z,77.10
2019-01-03T19:23:59.692Z,76.80
2019-01-03T19:26:29.226Z,76.60
2019-01-03T19:29:00.294Z,77.60
2019-01-03T19:31:30.025Z,77.40
2019-01-03T19:33:59.574Z,78.60
2019-01-03T19:36:30.111Z,79.00
2019-01-03T19:39:00.122Z,77.50
2019-01-03T19:41:29.801Z,77.80
2019-01-03T19:43:59.533Z,78.00
2019-01-03T19:46:29.189Z,79.00
2019-01-03T19:49:00.923Z,80.30
2019-01-03T19:51:31.137Z,79.80
2019-01-03T19:54:01.917Z,77.90
2019-01-03T19:56:31.874Z,76.60
2019-01-03T19:59:01.497Z,77.70
2019-01-03T20:01:32.131Z,79.30
2019-01-03T20:04:02.111Z,79.00
2019-01-03T20:06:32.197Z,81.50
2019-01-03T20:09:08.685Z,81.50
2019-01-03T20:11:38.533Z,82.60
2019-01-03T20:14:09.341Z,79.60
2019-01-03T20:16:39.504Z,80.90
2019-01-03T20:19:09.454Z,80.40
2019-01-03T20:21:39.740Z,80.90
2019-01-03T20:24:15.976Z,79.30
2019-01-03T20:26:48.386Z,80.60
2019-01-03T20:29:19.081Z,80.60
2019-01-03T20:31:48.577Z,81.40
2019-01-03T20:34:18.197Z,82.30
2019-01-03T20:36:48.118Z,81.00
2019-01-03T20:39:18.069Z,80.50
2019-01-03T20:41:47.659Z,79.80
2019-01-03T20:44:17.240Z,80.30
2019-01-03T20:46:49.355Z,82.40
2019-01-03T20:49:19.014Z,82.20
2019-01-03T20:51:49.273Z,79.90
2019-01-03T20:54:20.622Z,79.50
2019-01-03T20:56:50.470Z,78.80
2019-01-03T20:59:20.419Z,78.50
2019-01-03T21:01:58.150Z,80.30
2019-01-03T21:04:28.967Z,80.80
2019-01-03T21:06:58.807Z,79.80
2019-01-03T21:09:28.330Z,81.90
2019-01-03T21:12:00.038Z,80.40
2019-01-03T21:14:30.071Z,80.50
2019-01-03T21:17:00.981Z,80.40
2019-01-03T21:19:30.403Z,80.60
2019-01-03T21:22:01.901Z,80.70
2019-01-03T21:24:31.488Z,80.70
2019-01-03T21:27:01.060Z,82.20
2019-01-03T21:29:30.637Z,82.40
2019-01-03T21:32:00.289Z,81.80
2019-01-03T21:34:33.013Z,85.40
2019-01-03T21:37:03.273Z,86.10
2019-01-03T21:39:34.657Z,84.70
2019-01-03T21:42:04.645Z,85.40
2019-01-03T21:44:34.204Z,85.70
2019-01-03T21:47:04.865Z,84.90
2019-01-03T21:49:34.393Z,83.90
2019-01-03T21:52:04.389Z,83.90
2019-01-03T21:54:34.317Z,83.40
2019-01-03T21:57:03.821Z,83.70
2019-01-03T21:59:33.382Z,83.30
2019-01-03T22:02:03.152Z,84.00
2019-01-03T22:04:32.681Z,83.30
2019-01-03T22:07:02.393Z,82.60
2019-01-03T22:09:32.039Z,82.70
2019-01-03T22:12:01.845Z,82.80
2019-01-03T22:14:31.731Z,81.90
2019-01-03T22:17:01.405Z,81.80
2019-01-03T22:19:30.909Z,82.00
2019-01-03T22:22:00.462Z,81.50
2019-01-03T22:24:29.987Z,82.00
2019-01-03T22:26:59.858Z,81.50
2019-01-03T22:29:29.389Z,82.20
2019-01-03T22:32:01.044Z,85.30
2019-01-03T22:34:31.102Z,84.80
2019-01-03T22:37:00.952Z,83.80
2019-01-03T22:39:30.401Z,84.30
2019-01-03T22:42:01.879Z,84.30
2019-01-03T22:44:31.342Z,84.00
2019-01-03T22:47:00.840Z,83.80
2019-01-03T22:49:30.494Z,84.50
2019-01-03T22:52:00.021Z,84.10
2019-01-03T22:54:30.566Z,83.60
2019-01-03T22:57:00.221Z,83.20
2019-01-03T22:59:35.712Z,83.00
2019-01-03T23:02:05.409Z,82.60
2019-01-03T23:04:34.842Z,82.40
2019-01-03T23:07:04.613Z,82.80
2019-01-03T23:09:34.120Z,83.20
2019-01-03T23:12:03.740Z,81.70
2019-01-03T23:14:34.576Z,81.50
2019-01-03T23:17:04.177Z,81.10
2019-01-03T23:19:34.632Z,81.00
2019-01-03T23:22:04.694Z,82.30
2019-01-03T23:24:34.173Z,83.40
2019-01-03T23:27:03.770Z,82.30
2019-01-03T23:29:33.342Z,83.10
2019-01-03T23:32:02.841Z,82.80
2019-01-03T23:34:32.281Z,83.00
2019-01-03T23:37:01.992Z,83.10
2019-01-03T23:39:31.437Z,84.10
2019-01-03T23:42:02.209Z,83.50
2019-01-03T23:44:31.805Z,83.20
2019-01-03T23:47:04.788Z,84.70
2019-01-03T23:49:52.511Z,84.50
2019-01-03T23:52:22.041Z,84.10
2019-01-03T23:54:51.949Z,82.90
2019-01-03T23:57:22.454Z,83.80
2019-01-03T23:59:52.410Z,82.90
